SBBRYZYX KWBCYMYX SOZZMAMX SYZZMAMX TBPBYMYX TNCCYMYX

TNCAYMYX TFFFYMYX TFFRYMYX TTPPYMYX EGZZMNAM

312200 SMJPYMYX

FTSM20 SMJP 312200

TAF SMJP 312200Z 0100/0124 04004KT CAVOK TX34/0118Z TN23/0110Z PROB30 TEMPO 0109/0111 4000 BR FM011200 10010KT 9999 SCT020=

 

TAF SMZO 312200Z 0100/0124 05004KT CAVOK TX34/0118Z TN24/0110Z FM011200 10010KT 9999 SCT020=

 

 

 

JS

OCTOBER 31, 2014